createdAt,value
2018-07-15T00:00:48.361Z,4.37
2018-07-15T00:03:18.765Z,2.40
2018-07-15T00:05:48.411Z,2.60
2018-07-15T00:08:20.369Z,2.07
2018-07-15T00:10:51.661Z,2.77
2018-07-15T00:13:21.915Z,2.33
2018-07-15T00:15:51.137Z,6.07
2018-07-15T00:18:21.558Z,5.43
2018-07-15T00:20:50.895Z,4.90
2018-07-15T00:23:21.573Z,3.20
2018-07-15T00:25:52.571Z,3.27
2018-07-15T00:28:21.870Z,4.03
2018-07-15T00:30:54.146Z,2.90
2018-07-15T00:33:24.032Z,3.13
2018-07-15T00:35:54.899Z,4.17
2018-07-15T00:38:27.609Z,3.40
2018-07-15T00:40:57.631Z,2.53
2018-07-15T00:43:27.362Z,2.90
2018-07-15T00:45:57.978Z,5.20
2018-07-15T00:48:27.755Z,4.97
2018-07-15T00:50:57.383Z,4.90
2018-07-15T00:53:27.344Z,2.63
2018-07-15T00:55:56.525Z,4.23
2018-07-15T00:58:29.016Z,4.60
2018-07-15T01:01:03.964Z,3.43
2018-07-15T01:03:35.004Z,2.83
2018-07-15T01:06:05.445Z,3.03
2018-07-15T01:08:36.588Z,2.90
2018-07-15T01:11:06.770Z,3.30
2018-07-15T01:13:40.252Z,2.80
2018-07-15T01:16:10.378Z,5.80
2018-07-15T01:18:41.255Z,4.13
2018-07-15T01:21:13.106Z,4.83
2018-07-15T01:23:43.369Z,20.27
2018-07-15T01:26:13.787Z,3.63
2018-07-15T01:28:44.547Z,4.53
2018-07-15T01:31:14.068Z,5.53
2018-07-15T01:33:46.440Z,3.03
2018-07-15T01:36:17.798Z,2.97
2018-07-15T01:38:46.872Z,4.33
2018-07-15T01:41:17.557Z,5.27
2018-07-15T01:43:48.164Z,3.37
2018-07-15T01:46:18.802Z,3.63
2018-07-15T01:48:52.090Z,6.00
2018-07-15T01:51:21.507Z,7.47
2018-07-15T01:53:53.866Z,3.37
2018-07-15T01:56:22.792Z,3.50
2018-07-15T01:58:52.573Z,3.40
2018-07-15T02:01:22.292Z,4.47
2018-07-15T02:03:52.156Z,5.67
2018-07-15T02:06:21.921Z,4.60
2018-07-15T02:08:51.647Z,7.00
2018-07-15T02:11:22.692Z,4.10
2018-07-15T02:13:53.548Z,5.27
2018-07-15T02:16:24.347Z,4.37
2018-07-15T02:18:53.736Z,4.70
2018-07-15T02:21:23.529Z,5.93
2018-07-15T02:23:52.953Z,3.70
2018-07-15T02:26:22.965Z,3.87
2018-07-15T02:28:52.722Z,4.33
2018-07-15T02:31:22.662Z,5.37
2018-07-15T02:33:53.299Z,4.10
2018-07-15T02:36:23.804Z,4.50
2018-07-15T02:38:54.504Z,4.13
2018-07-15T02:41:24.068Z,5.67
2018-07-15T02:43:54.202Z,4.70
2018-07-15T02:46:29.036Z,6.00
2018-07-15T02:49:00.618Z,7.57
2018-07-15T02:51:30.551Z,6.93
2018-07-15T02:54:01.393Z,9.83
2018-07-15T02:56:31.583Z,6.47
2018-07-15T02:59:03.354Z,4.80
2018-07-15T03:01:34.449Z,10.33
2018-07-15T03:04:04.639Z,6.00
2018-07-15T03:06:34.107Z,5.37
2018-07-15T03:09:04.254Z,5.63
2018-07-15T03:11:34.466Z,10.00
2018-07-15T03:14:06.700Z,7.60
2018-07-15T03:16:37.961Z,4.57
2018-07-15T03:19:08.714Z,5.10
2018-07-15T03:21:37.823Z,5.37
2018-07-15T03:24:09.353Z,7.20
2018-07-15T03:26:40.934Z,6.30
2018-07-15T03:29:12.591Z,9.20
2018-07-15T03:31:45.076Z,6.03
2018-07-15T03:34:14.421Z,16.27
2018-07-15T03:36:43.356Z,13.27
2018-07-15T03:39:12.533Z,8.30
2018-07-15T03:41:43.474Z,8.70
2018-07-15T03:44:13.325Z,38.30
2018-07-15T03:46:42.847Z,12.10
2018-07-15T03:49:13.221Z,11.70
2018-07-15T03:51:45.902Z,8.23
2018-07-15T03:54:16.858Z,6.53
2018-07-15T03:56:46.312Z,8.73
2018-07-15T03:59:16.085Z,7.27
2018-07-15T04:01:47.924Z,7.63
2018-07-15T04:04:17.580Z,7.03
2018-07-15T04:06:46.646Z,7.63
2018-07-15T04:09:16.848Z,6.83
2018-07-15T04:11:47.184Z,6.67
2018-07-15T04:14:20.077Z,7.47
2018-07-15T04:16:54.180Z,7.90
2018-07-15T04:19:23.828Z,6.67
2018-07-15T04:21:53.343Z,6.80
2018-07-15T04:24:23.626Z,7.70
2018-07-15T04:26:53.815Z,7.20
2018-07-15T04:29:24.866Z,6.73
2018-07-15T04:31:55.930Z,7.60
2018-07-15T04:34:26.035Z,6.93
2018-07-15T04:36:57.742Z,8.40
2018-07-15T04:39:26.971Z,8.33
2018-07-15T04:41:56.592Z,10.73
2018-07-15T04:44:26.005Z,14.40
2018-07-15T04:46:57.933Z,7.00
2018-07-15T04:49:27.116Z,8.70
2018-07-15T04:51:56.241Z,9.00
2018-07-15T04:54:26.810Z,7.53
2018-07-15T04:56:56.708Z,8.77
2018-07-15T04:59:27.228Z,7.17
2018-07-15T05:01:56.850Z,8.63
2018-07-15T05:04:27.081Z,13.37
2018-07-15T05:06:55.987Z,8.23
2018-07-15T05:09:26.572Z,9.43
2018-07-15T05:11:58.805Z,8.17
2018-07-15T05:14:30.292Z,12.73
2018-07-15T05:17:00.647Z,8.13
2018-07-15T05:19:30.128Z,8.57
2018-07-15T05:22:04.126Z,7.10
2018-07-15T05:24:34.797Z,7.57
2018-07-15T05:27:06.217Z,8.03
2018-07-15T05:29:36.721Z,9.07
2018-07-15T05:32:06.573Z,12.97
2018-07-15T05:34:35.717Z,13.17
2018-07-15T05:37:05.521Z,20.20
2018-07-15T05:39:35.727Z,7.67
2018-07-15T05:42:05.727Z,11.43
2018-07-15T05:44:35.748Z,8.57
2018-07-15T05:47:06.001Z,9.80
2018-07-15T05:49:36.305Z,7.47
2018-07-15T05:52:08.036Z,7.83
2018-07-15T05:54:37.324Z,8.33
2018-07-15T05:57:08.762Z,9.00
2018-07-15T05:59:39.855Z,9.07
2018-07-15T06:02:09.668Z,8.53
2018-07-15T06:04:38.855Z,9.80
2018-07-15T06:07:07.108Z,10.40
2018-07-15T06:09:35.957Z,8.03
2018-07-15T06:12:04.969Z,8.90
2018-07-15T06:14:33.347Z,10.03
2018-07-15T06:17:02.583Z,13.67
2018-07-15T06:19:30.848Z,14.50
2018-07-15T06:21:59.734Z,9.33
2018-07-15T06:24:28.360Z,9.40
2018-07-15T06:26:57.691Z,11.10
2018-07-15T06:29:26.362Z,10.70
2018-07-15T06:31:55.738Z,7.20
2018-07-15T06:34:24.308Z,8.80
2018-07-15T06:36:53.262Z,9.93
2018-07-15T06:39:21.290Z,6.87
2018-07-15T06:41:49.561Z,10.20
2018-07-15T06:44:19.104Z,8.17
2018-07-15T06:46:48.113Z,15.97
2018-07-15T06:49:17.165Z,9.27
2018-07-15T06:51:46.046Z,8.43
2018-07-15T06:54:14.624Z,9.67
2018-07-15T06:56:43.220Z,10.60
2018-07-15T06:59:12.148Z,13.90
2018-07-15T07:01:42.112Z,7.83
2018-07-15T07:04:12.345Z,8.30
2018-07-15T07:06:46.889Z,10.93
2018-07-15T07:09:15.605Z,8.35
2018-07-15T07:11:44.669Z,7.10
2018-07-15T07:14:14.905Z,7.53
2018-07-15T07:16:44.395Z,10.07
2018-07-15T07:19:14.734Z,8.70
2018-07-15T07:21:43.159Z,13.30
2018-07-15T07:24:12.229Z,8.90
2018-07-15T07:26:40.731Z,7.53
2018-07-15T07:29:09.979Z,7.27
2018-07-15T07:34:12.411Z,8.50
2018-07-15T07:36:41.163Z,6.97
2018-07-15T07:39:10.288Z,6.47
2018-07-15T07:41:39.603Z,15.90
2018-07-15T07:44:09.053Z,6.10
2018-07-15T07:46:39.148Z,8.80
2018-07-15T07:49:08.166Z,6.03
2018-07-15T07:51:38.456Z,6.90
2018-07-15T07:54:11.531Z,4.40
2018-07-15T07:56:40.390Z,7.20
2018-07-15T07:59:13.300Z,5.50
2018-07-15T08:01:41.534Z,8.73
2018-07-15T08:04:11.042Z,5.60
2018-07-15T08:06:39.773Z,2.83
2018-07-15T08:09:08.319Z,4.57
2018-07-15T08:11:38.001Z,4.17
2018-07-15T08:14:07.031Z,2.57
2018-07-15T08:16:37.645Z,4.47
2018-07-15T08:19:06.438Z,9.63
2018-07-15T08:21:35.813Z,2.37
2018-07-15T08:24:05.847Z,2.37
2018-07-15T08:26:34.314Z,3.60
2018-07-15T08:29:02.738Z,3.23
2018-07-15T08:31:31.019Z,4.27
2018-07-15T08:34:03.669Z,2.77
2018-07-15T08:36:33.988Z,5.73
2018-07-15T08:39:02.215Z,3.40
2018-07-15T08:41:30.695Z,3.60
2018-07-15T08:43:59.443Z,3.20
2018-07-15T08:46:29.560Z,6.80
2018-07-15T08:48:58.500Z,3.83
2018-07-15T08:51:27.540Z,9.53
2018-07-15T08:53:56.749Z,7.63
2018-07-15T08:56:25.028Z,7.83
2018-07-15T08:58:53.608Z,1.77
2018-07-15T09:01:29.735Z,2.33
2018-07-15T09:03:59.682Z,3.87
2018-07-15T09:06:30.975Z,2.87
2018-07-15T09:09:00.961Z,2.67
2018-07-15T09:11:30.594Z,2.83
2018-07-15T09:13:59.420Z,3.03
2018-07-15T09:16:28.789Z,3.00
2018-07-15T09:18:57.558Z,4.40
2018-07-15T09:21:25.868Z,2.57
2018-07-15T09:23:54.217Z,2.23
2018-07-15T09:26:23.044Z,3.60
2018-07-15T09:28:53.291Z,1.60
2018-07-15T09:31:24.057Z,2.80
2018-07-15T09:33:54.339Z,5.80
2018-07-15T09:36:22.893Z,3.27
2018-07-15T09:38:53.014Z,1.97
2018-07-15T09:41:21.670Z,2.07
2018-07-15T09:43:50.972Z,4.60
2018-07-15T09:46:19.902Z,8.83
2018-07-15T09:48:50.134Z,4.00
2018-07-15T09:51:18.392Z,2.77
2018-07-15T09:53:47.407Z,3.93
2018-07-15T09:56:15.656Z,6.50
2018-07-15T09:58:45.814Z,2.70
2018-07-15T10:01:15.104Z,10.60
2018-07-15T10:03:44.320Z,5.47
2018-07-15T10:06:12.718Z,6.27
2018-07-15T10:08:41.326Z,3.07
2018-07-15T10:11:10.571Z,5.83
2018-07-15T10:13:38.851Z,3.50
2018-07-15T10:16:07.472Z,2.40
2018-07-15T10:18:36.842Z,3.83
2018-07-15T10:21:06.066Z,2.33
2018-07-15T10:23:35.477Z,1.53
2018-07-15T10:26:04.528Z,5.00
2018-07-15T10:28:35.259Z,2.30
2018-07-15T10:31:05.449Z,8.10
2018-07-15T10:33:35.167Z,4.67
2018-07-15T10:36:04.474Z,11.03
2018-07-15T10:38:33.758Z,5.20
2018-07-15T10:41:03.981Z,2.60
2018-07-15T10:43:33.089Z,2.13
2018-07-15T10:46:01.359Z,4.77
2018-07-15T10:48:30.365Z,3.00
2018-07-15T10:50:58.760Z,4.40
2018-07-15T10:53:28.755Z,1.27
2018-07-15T10:55:59.475Z,3.07
2018-07-15T10:58:28.591Z,1.43
2018-07-15T11:00:56.879Z,2.23
2018-07-15T11:03:25.698Z,3.83
2018-07-15T11:05:55.228Z,2.23
2018-07-15T11:08:26.411Z,1.20
2018-07-15T11:10:56.876Z,1.80
2018-07-15T11:13:26.615Z,1.30
2018-07-15T11:15:55.471Z,3.30
2018-07-15T11:18:25.914Z,1.10
2018-07-15T11:20:53.922Z,5.10
2018-07-15T11:23:23.185Z,2.50
2018-07-15T11:25:56.554Z,1.93
2018-07-15T11:28:25.468Z,1.67
2018-07-15T11:30:53.875Z,1.80
2018-07-15T11:33:22.983Z,3.83
2018-07-15T11:35:52.406Z,2.70
2018-07-15T11:38:29.697Z,2.10
2018-07-15T11:40:59.750Z,1.20
2018-07-15T11:43:28.693Z,1.40
2018-07-15T11:45:58.316Z,1.40
2018-07-15T11:48:28.335Z,1.10
2018-07-15T11:50:57.368Z,1.40
2018-07-15T11:53:26.682Z,1.50
2018-07-15T11:55:55.390Z,3.43
2018-07-15T11:58:24.909Z,2.33
2018-07-15T12:00:53.566Z,7.80
2018-07-15T12:03:23.228Z,1.23
2018-07-15T12:05:51.452Z,1.10
2018-07-15T12:08:19.979Z,1.30
2018-07-15T12:10:48.740Z,3.20
2018-07-15T12:13:17.675Z,1.57
2018-07-15T12:15:48.424Z,1.47
2018-07-15T12:18:17.901Z,2.47
2018-07-15T12:20:47.299Z,1.10
2018-07-15T12:23:15.607Z,1.27
2018-07-15T12:25:43.836Z,1.90
2018-07-15T12:28:13.347Z,3.23
2018-07-15T12:30:41.590Z,1.40
2018-07-15T12:33:13.743Z,1.30
2018-07-15T12:35:42.008Z,1.20
2018-07-15T12:38:12.455Z,2.53
2018-07-15T12:40:41.343Z,2.43
2018-07-15T12:43:12.144Z,1.20
2018-07-15T12:45:40.995Z,1.33
2018-07-15T12:48:09.049Z,2.13
2018-07-15T12:50:38.418Z,4.30
2018-07-15T12:53:08.769Z,1.60
2018-07-15T12:55:41.539Z,2.47
2018-07-15T12:58:10.444Z,1.70
2018-07-15T13:00:40.420Z,1.20
2018-07-15T13:03:09.294Z,1.53
2018-07-15T13:05:37.561Z,3.60
2018-07-15T13:08:06.982Z,2.20
2018-07-15T13:10:37.364Z,1.00
2018-07-15T13:13:12.679Z,3.50
2018-07-15T13:15:42.122Z,1.10
2018-07-15T13:18:13.620Z,2.27
2018-07-15T13:20:42.589Z,1.20
2018-07-15T13:23:12.370Z,11.60
2018-07-15T13:25:41.328Z,1.30
2018-07-15T13:28:11.488Z,1.53
2018-07-15T13:30:41.008Z,3.97
2018-07-15T13:33:09.878Z,1.20
2018-07-15T13:35:40.300Z,2.33
2018-07-15T13:38:09.815Z,1.20
2018-07-15T13:40:39.176Z,7.00
2018-07-15T13:43:09.079Z,2.23
2018-07-15T13:45:39.540Z,3.37
2018-07-15T13:48:08.071Z,1.73
2018-07-15T13:50:37.296Z,1.90
2018-07-15T13:53:06.880Z,2.90
2018-07-15T13:55:37.264Z,3.13
2018-07-15T13:58:06.136Z,1.23
2018-07-15T14:00:35.304Z,1.57
2018-07-15T14:03:04.071Z,1.27
2018-07-15T14:05:32.672Z,1.43
2018-07-15T14:08:00.805Z,1.00
2018-07-15T14:10:29.945Z,0.90
2018-07-15T14:13:03.662Z,0.80
2018-07-15T14:15:32.223Z,0.70
2018-07-15T14:18:01.364Z,1.10
2018-07-15T14:20:31.872Z,2.10
2018-07-15T14:23:00.427Z,1.37
2018-07-15T14:25:29.632Z,0.83
2018-07-15T14:27:58.844Z,0.80
2018-07-15T14:30:29.104Z,0.80
2018-07-15T14:32:58.939Z,0.83
2018-07-15T14:35:28.219Z,2.93
2018-07-15T14:37:57.421Z,1.02
2018-07-15T14:40:25.479Z,0.70
2018-07-15T14:42:53.765Z,0.72
2018-07-15T14:45:23.484Z,0.40
2018-07-15T14:47:51.886Z,3.50
2018-07-15T14:50:21.287Z,1.30
2018-07-15T14:52:50.715Z,0.93
2018-07-15T14:55:20.994Z,4.42
2018-07-15T14:57:51.146Z,0.75
2018-07-15T15:00:21.639Z,2.58
2018-07-15T15:02:52.196Z,0.65
2018-07-15T15:05:20.949Z,4.62
2018-07-15T15:07:49.443Z,0.70
2018-07-15T15:10:19.163Z,2.15
2018-07-15T15:12:47.895Z,0.60
2018-07-15T15:15:18.782Z,0.60
2018-07-15T15:17:47.683Z,0.65
2018-07-15T15:20:16.375Z,0.50
2018-07-15T15:22:46.436Z,3.10
2018-07-15T15:25:16.196Z,0.70
2018-07-15T15:27:44.439Z,0.50
2018-07-15T15:30:15.302Z,0.75
2018-07-15T15:32:46.309Z,1.65
2018-07-15T15:35:16.183Z,0.50
2018-07-15T15:37:45.317Z,0.45
2018-07-15T15:40:14.302Z,1.42
2018-07-15T15:42:42.943Z,0.60
2018-07-15T15:45:11.450Z,1.12
2018-07-15T15:47:41.003Z,0.78
2018-07-15T15:50:09.355Z,0.93
2018-07-15T15:52:37.603Z,0.40
2018-07-15T15:55:07.611Z,0.68
2018-07-15T15:57:36.513Z,0.60
2018-07-15T16:00:08.756Z,0.50
2018-07-15T16:02:37.413Z,1.67
2018-07-15T16:05:09.002Z,0.80
2018-07-15T16:07:38.027Z,1.40
2018-07-15T16:10:06.789Z,0.70
2018-07-15T16:12:36.123Z,1.20
2018-07-15T16:15:05.711Z,1.73
2018-07-15T16:17:35.857Z,1.40
2018-07-15T16:20:04.880Z,1.27
2018-07-15T16:22:33.155Z,2.33
2018-07-15T16:25:02.469Z,1.10
2018-07-15T16:27:31.183Z,1.10
2018-07-15T16:30:01.958Z,1.60
2018-07-15T16:32:31.418Z,1.20
2018-07-15T16:34:59.737Z,0.90
2018-07-15T16:37:29.002Z,0.97
2018-07-15T16:39:58.935Z,5.13
2018-07-15T16:42:27.629Z,1.10
2018-07-15T16:44:55.907Z,1.13
2018-07-15T16:47:24.874Z,0.90
2018-07-15T16:49:53.299Z,2.40
2018-07-15T16:52:21.489Z,0.93
2018-07-15T16:54:50.504Z,1.00
2018-07-15T16:57:19.192Z,2.70
2018-07-15T16:59:48.996Z,1.20
2018-07-15T17:02:16.966Z,1.93
2018-07-15T17:04:46.597Z,1.50
2018-07-15T17:07:16.364Z,1.10
2018-07-15T17:09:45.456Z,1.10
2018-07-15T17:12:15.560Z,0.93
2018-07-15T17:14:44.217Z,1.00
2018-07-15T17:17:17.913Z,1.00
2018-07-15T17:19:46.130Z,1.47
2018-07-15T17:22:15.328Z,1.10
2018-07-15T17:24:44.572Z,0.90
2018-07-15T17:27:12.594Z,1.13
2018-07-15T17:29:43.498Z,5.03
2018-07-15T17:32:11.812Z,1.07
2018-07-15T17:34:40.035Z,4.60
2018-07-15T17:37:08.015Z,1.10
2018-07-15T17:39:36.249Z,1.50
2018-07-15T17:42:04.604Z,2.40
2018-07-15T17:44:34.160Z,0.80
2018-07-15T17:47:05.488Z,0.97
2018-07-15T17:49:34.858Z,0.87
2018-07-15T17:52:04.322Z,3.53
2018-07-15T17:54:32.442Z,1.00
2018-07-15T17:57:01.730Z,4.53
2018-07-15T17:59:32.515Z,1.17
2018-07-15T18:02:01.384Z,0.97
2018-07-15T18:04:32.056Z,1.37
2018-07-15T18:07:01.560Z,1.43
2018-07-15T18:09:30.478Z,1.63
2018-07-15T18:12:00.401Z,5.27
2018-07-15T18:14:29.293Z,1.43
2018-07-15T18:19:34.038Z,2.07
2018-07-15T18:22:02.317Z,1.33
2018-07-15T18:24:31.150Z,1.43
2018-07-15T18:26:59.433Z,1.20
2018-07-15T18:29:27.761Z,4.20
2018-07-15T18:31:57.440Z,1.53
2018-07-15T18:34:25.421Z,2.23
2018-07-15T18:36:54.087Z,4.77
2018-07-15T18:39:23.653Z,3.73
2018-07-15T18:41:52.713Z,5.93
2018-07-15T18:44:26.624Z,8.13
2018-07-15T18:46:55.988Z,7.70
2018-07-15T18:49:24.277Z,10.80
2018-07-15T18:51:52.737Z,10.70
2018-07-15T18:54:23.469Z,10.17
2018-07-15T18:56:51.768Z,7.90
2018-07-15T18:59:21.797Z,9.17
2018-07-15T19:01:52.330Z,7.40
2018-07-15T19:04:23.222Z,8.00
2018-07-15T19:06:51.738Z,6.40
2018-07-15T19:09:22.683Z,5.27
2018-07-15T19:11:52.591Z,5.20
2018-07-15T19:14:20.570Z,7.50
2018-07-15T19:16:48.910Z,7.60
2018-07-15T19:19:23.112Z,11.40
2018-07-15T19:21:51.794Z,6.30
2018-07-15T19:24:22.318Z,12.00
2018-07-15T19:26:52.241Z,6.13
2018-07-15T19:29:21.814Z,4.93
2018-07-15T19:34:25.314Z,4.57
2018-07-15T19:36:53.749Z,4.30
2018-07-15T19:39:23.403Z,4.03
2018-07-15T19:41:53.067Z,5.10
2018-07-15T19:44:22.555Z,5.10
2018-07-15T19:46:51.533Z,3.90
2018-07-15T19:49:19.504Z,4.50
2018-07-15T19:51:48.647Z,3.87
2018-07-15T19:54:18.723Z,7.40
2018-07-15T19:56:48.194Z,6.53
2018-07-15T19:59:16.444Z,5.27
2018-07-15T20:01:47.831Z,5.40
2018-07-15T20:04:17.155Z,5.73
2018-07-15T20:06:45.723Z,7.87
2018-07-15T20:09:15.389Z,8.93
2018-07-15T20:11:47.576Z,4.53
2018-07-15T20:14:16.493Z,4.93
2018-07-15T20:16:45.133Z,7.10
2018-07-15T20:19:16.190Z,4.47
2018-07-15T20:21:45.171Z,5.20
2018-07-15T20:24:14.222Z,4.90
2018-07-15T20:26:43.349Z,7.63
2018-07-15T20:29:12.967Z,8.67
2018-07-15T20:31:42.232Z,4.93
2018-07-15T20:34:10.651Z,5.57
2018-07-15T20:36:40.139Z,7.57
2018-07-15T20:39:09.548Z,5.03
2018-07-15T20:41:39.142Z,4.63
2018-07-15T20:44:08.418Z,3.53
2018-07-15T20:46:38.634Z,11.03
2018-07-15T20:49:07.309Z,5.63
2018-07-15T20:51:37.601Z,7.17
2018-07-15T20:54:07.216Z,7.20
2018-07-15T20:56:36.615Z,4.27
2018-07-15T20:59:06.716Z,4.17
2018-07-15T21:01:35.424Z,3.30
2018-07-15T21:04:04.533Z,6.50
2018-07-15T21:06:35.046Z,2.33
2018-07-15T21:09:04.870Z,9.00
2018-07-15T21:11:33.734Z,7.13
2018-07-15T21:14:04.402Z,2.10
2018-07-15T21:16:32.714Z,2.40
2018-07-15T21:19:01.942Z,2.20
2018-07-15T21:21:32.076Z,3.97
2018-07-15T21:24:02.491Z,6.83
2018-07-15T21:26:32.575Z,7.73
2018-07-15T21:29:02.600Z,2.33
2018-07-15T21:31:32.688Z,3.10
2018-07-15T21:34:00.871Z,2.83
2018-07-15T21:36:31.987Z,2.00
2018-07-15T21:39:01.220Z,4.23
2018-07-15T21:41:32.536Z,2.20
2018-07-15T21:44:01.557Z,2.10
2018-07-15T21:46:30.629Z,1.60
2018-07-15T21:48:58.865Z,2.20
2018-07-15T21:51:27.487Z,2.63
2018-07-15T21:54:00.527Z,4.17
2018-07-15T21:56:29.735Z,3.43
2018-07-15T21:58:58.131Z,2.00
2018-07-15T22:01:37.247Z,3.20
2018-07-15T22:04:07.343Z,3.07
2018-07-15T22:06:47.490Z,4.10
2018-07-15T22:09:27.691Z,4.37
2018-07-15T22:11:56.246Z,1.97
2018-07-15T22:14:26.973Z,1.83
2018-07-15T22:16:55.224Z,2.63
2018-07-15T22:19:25.347Z,4.80
2018-07-15T22:21:55.272Z,2.47
2018-07-15T22:24:29.125Z,2.53
2018-07-15T22:26:58.992Z,7.13
2018-07-15T22:29:28.889Z,1.97
2018-07-15T22:31:57.168Z,3.43
2018-07-15T22:34:26.166Z,3.00
2018-07-15T22:36:57.308Z,2.00
2018-07-15T22:39:25.936Z,4.30
2018-07-15T22:41:54.171Z,3.07
2018-07-15T22:44:23.270Z,3.77
2018-07-15T22:46:51.558Z,12.40
2018-07-15T22:49:20.027Z,2.13
2018-07-15T22:51:49.690Z,1.77
2018-07-15T22:54:21.097Z,3.20
2018-07-15T22:56:50.449Z,5.90
2018-07-15T22:59:21.352Z,3.03
2018-07-15T23:01:51.744Z,1.93
2018-07-15T23:05:31.873Z,1.70
2018-07-15T23:08:02.906Z,3.37
2018-07-15T23:10:33.699Z,3.37
2018-07-15T23:13:05.137Z,3.17
2018-07-15T23:15:35.234Z,2.53
2018-07-15T23:18:06.346Z,2.10
2018-07-15T23:20:37.820Z,3.03
2018-07-15T23:23:08.562Z,3.00
2018-07-15T23:25:38.831Z,4.03
2018-07-15T23:28:10.325Z,1.60
2018-07-15T23:30:40.565Z,4.30
2018-07-15T23:33:10.995Z,1.20
2018-07-15T23:35:41.467Z,2.53
2018-07-15T23:38:11.280Z,5.27
2018-07-15T23:40:42.774Z,4.23
2018-07-15T23:43:13.219Z,1.67
2018-07-15T23:45:42.642Z,4.13
2018-07-15T23:48:12.829Z,2.17
2018-07-15T23:50:43.624Z,3.80
2018-07-15T23:53:12.947Z,3.07
2018-07-15T23:55:44.819Z,3.90
2018-07-15T23:58:17.481Z,2.83
